sensor_id;sensor_type;location;lat;lon;timestamp;pressure;altitude;pressure_sealevel;temperature;humidity
20077;BME280;12348;42.710;23.378;2022-12-07T00:00:19;95147.53;;;4.97;100.00
20077;BME280;12348;42.710;23.378;2022-12-07T00:02:46;95137.94;;;5.01;100.00
20077;BME280;12348;42.710;23.378;2022-12-07T00:05:13;95138.97;;;5.00;100.00
20077;BME280;12348;42.710;23.378;2022-12-07T00:07:39;95142.25;;;5.07;100.00
20077;BME280;12348;42.710;23.378;2022-12-07T00:10:08;95135.50;;;5.27;100.00
20077;BME280;12348;42.710;23.378;2022-12-07T00:12:35;95140.59;;;5.33;100.00
20077;BME280;12348;42.710;23.378;2022-12-07T00:15:02;95129.28;;;5.21;100.00
20077;BME280;12348;42.710;23.378;2022-12-07T00:17:29;95129.50;;;5.15;100.00
20077;BME280;12348;42.710;23.378;2022-12-07T00:19:56;95136.75;;;5.56;100.00
20077;BME280;12348;42.710;23.378;2022-12-07T00:22:22;95136.53;;;5.26;100.00
20077;BME280;12348;42.710;23.378;2022-12-07T00:24:49;95133.53;;;5.17;100.00
20077;BME280;12348;42.710;23.378;2022-12-07T00:27:17;95138.06;;;5.17;100.00
20077;BME280;12348;42.710;23.378;2022-12-07T00:29:44;95139.06;;;5.10;100.00
20077;BME280;12348;42.710;23.378;2022-12-07T00:32:10;95139.25;;;4.99;100.00
20077;BME280;12348;42.710;23.378;2022-12-07T00:34:37;95148.31;;;4.98;100.00
20077;BME280;12348;42.710;23.378;2022-12-07T00:37:04;95152.38;;;5.05;100.00
20077;BME280;12348;42.710;23.378;2022-12-07T00:39:31;95147.38;;;5.14;100.00
20077;BME280;12348;42.710;23.378;2022-12-07T00:41:58;95143.41;;;5.17;100.00
20077;BME280;12348;42.710;23.378;2022-12-07T00:44:26;95145.22;;;5.11;100.00
20077;BME280;12348;42.710;23.378;2022-12-07T00:46:53;95135.88;;;5.08;100.00
20077;BME280;12348;42.710;23.378;2022-12-07T00:49:21;95135.88;;;5.08;100.00
20077;BME280;12348;42.710;23.378;2022-12-07T00:51:48;95134.25;;;5.07;100.00
20077;BME280;12348;42.710;23.378;2022-12-07T00:54:15;95129.97;;;5.06;100.00
20077;BME280;12348;42.710;23.378;2022-12-07T00:56:42;95128.88;;;5.02;100.00
20077;BME280;12348;42.710;23.378;2022-12-07T00:59:12;95125.50;;;5.12;100.00
20077;BME280;12348;42.710;23.378;2022-12-07T01:01:41;95124.41;;;5.08;100.00
20077;BME280;12348;42.710;23.378;2022-12-07T01:04:08;95121.97;;;5.06;100.00
20077;BME280;12348;42.710;23.378;2022-12-07T01:06:35;95122.78;;;5.07;100.00
20077;BME280;12348;42.710;23.378;2022-12-07T01:09:02;95109.19;;;5.08;100.00
20077;BME280;12348;42.710;23.378;2022-12-07T01:11:30;95119.88;;;5.08;100.00
20077;BME280;12348;42.710;23.378;2022-12-07T01:13:58;95129.50;;;5.15;100.00
20077;BME280;12348;42.710;23.378;2022-12-07T01:16:27;95126.88;;;5.20;100.00
20077;BME280;12348;42.710;23.378;2022-12-07T01:18:56;95127.19;;;5.23;100.00
20077;BME280;12348;42.710;23.378;2022-12-07T01:21:24;95124.41;;;5.45;100.00
20077;BME280;12348;42.710;23.378;2022-12-07T01:23:52;95123.25;;;5.36;100.00
20077;BME280;12348;42.710;23.378;2022-12-07T01:26:21;95113.59;;;5.30;100.00
20077;BME280;12348;42.710;23.378;2022-12-07T01:28:49;95110.94;;;5.30;100.00
20077;BME280;12348;42.710;23.378;2022-12-07T01:31:18;95114.66;;;5.29;100.00
20077;BME280;12348;42.710;23.378;2022-12-07T01:33:49;95117.13;;;5.35;100.00
20077;BME280;12348;42.710;23.378;2022-12-07T01:36:20;95100.91;;;5.52;100.00
20077;BME280;12348;42.710;23.378;2022-12-07T01:38:49;95108.13;;;5.52;100.00
20077;BME280;12348;42.710;23.378;2022-12-07T01:41:17;95107.13;;;5.58;100.00
20077;BME280;12348;42.710;23.378;2022-12-07T01:44:09;95096.69;;;5.56;100.00
20077;BME280;12348;42.710;23.378;2022-12-07T01:46:36;95106.03;;;5.59;100.00
20077;BME280;12348;42.710;23.378;2022-12-07T01:49:04;95107.81;;;5.38;100.00
20077;BME280;12348;42.710;23.378;2022-12-07T01:51:33;95103.47;;;5.32;100.00
20077;BME280;12348;42.710;23.378;2022-12-07T01:54:01;95104.19;;;5.22;100.00
20077;BME280;12348;42.710;23.378;2022-12-07T01:56:29;95105.53;;;5.20;100.00
20077;BME280;12348;42.710;23.378;2022-12-07T01:58:57;95096.34;;;5.05;100.00
20077;BME280;12348;42.710;23.378;2022-12-07T02:01:25;95096.59;;;5.04;100.00
20077;BME280;12348;42.710;23.378;2022-12-07T02:03:52;95082.94;;;4.95;100.00
20077;BME280;12348;42.710;23.378;2022-12-07T02:06:23;95090.97;;;5.00;100.00
20077;BME280;12348;42.710;23.378;2022-12-07T02:08:52;95091.22;;;4.99;100.00
20077;BME280;12348;42.710;23.378;2022-12-07T02:11:20;95085.72;;;5.10;100.00
20077;BME280;12348;42.710;23.378;2022-12-07T02:13:47;95090.25;;;5.10;100.00
20077;BME280;12348;42.710;23.378;2022-12-07T02:16:25;95091.03;;;5.10;100.00
20077;BME280;12348;42.710;23.378;2022-12-07T02:19:09;95089.63;;;5.35;100.00
20077;BME280;12348;42.710;23.378;2022-12-07T02:21:46;95082.00;;;5.59;100.00
20077;BME280;12348;42.710;23.378;2022-12-07T02:24:23;95089.13;;;5.43;100.00
20077;BME280;12348;42.710;23.378;2022-12-07T02:30:03;95084.72;;;5.22;100.00
20077;BME280;12348;42.710;23.378;2022-12-07T02:32:43;95080.88;;;5.07;100.00
20077;BME280;12348;42.710;23.378;2022-12-07T02:35:17;95072.41;;;5.16;100.00
20077;BME280;12348;42.710;23.378;2022-12-07T02:37:51;95078.00;;;5.14;100.00
20077;BME280;12348;42.710;23.378;2022-12-07T02:40:23;95072.38;;;5.10;100.00
20077;BME280;12348;42.710;23.378;2022-12-07T02:42:57;95078.25;;;5.13;100.00
20077;BME280;12348;42.710;23.378;2022-12-07T02:45:28;95079.88;;;5.14;100.00
20077;BME280;12348;42.710;23.378;2022-12-07T02:47:58;95078.56;;;5.16;100.00
20077;BME280;12348;42.710;23.378;2022-12-07T02:50:26;95078.53;;;5.53;100.00
20077;BME280;12348;42.710;23.378;2022-12-07T02:52:53;95072.72;;;5.19;100.00
20077;BME280;12348;42.710;23.378;2022-12-07T02:55:24;95072.06;;;5.07;100.00
20077;BME280;12348;42.710;23.378;2022-12-07T02:58:12;95070.88;;;4.93;100.00
20077;BME280;12348;42.710;23.378;2022-12-07T03:00:50;95071.66;;;4.88;100.00
20077;BME280;12348;42.710;23.378;2022-12-07T03:03:18;95070.56;;;4.84;100.00
20077;BME280;12348;42.710;23.378;2022-12-07T03:05:58;95062.03;;;4.82;100.00
20077;BME280;12348;42.710;23.378;2022-12-07T03:08:31;95055.56;;;4.78;100.00
20077;BME280;12348;42.710;23.378;2022-12-07T03:11:03;95063.31;;;4.74;100.00
20077;BME280;12348;42.710;23.378;2022-12-07T03:13:34;95060.06;;;4.72;100.00
20077;BME280;12348;42.710;23.378;2022-12-07T03:16:09;95060.63;;;4.74;100.00
20077;BME280;12348;42.710;23.378;2022-12-07T03:18:39;95051.28;;;4.72;100.00
20077;BME280;12348;42.710;23.378;2022-12-07T03:21:14;95061.38;;;4.70;100.00
20077;BME280;12348;42.710;23.378;2022-12-07T03:23:45;95056.00;;;4.65;100.00
20077;BME280;12348;42.710;23.378;2022-12-07T03:26:17;95050.09;;;4.57;100.00
20077;BME280;12348;42.710;23.378;2022-12-07T03:28:50;95050.88;;;4.58;100.00
20077;BME280;12348;42.710;23.378;2022-12-07T03:31:22;95056.19;;;4.53;100.00
20077;BME280;12348;42.710;23.378;2022-12-07T03:33:58;95053.22;;;4.49;100.00
20077;BME280;12348;42.710;23.378;2022-12-07T03:36:32;95056.13;;;4.48;100.00
20077;BME280;12348;42.710;23.378;2022-12-07T03:39:03;95064.63;;;4.45;100.00
20077;BME280;12348;42.710;23.378;2022-12-07T03:41:36;95073.69;;;4.44;100.00
20077;BME280;12348;42.710;23.378;2022-12-07T03:44:05;95063.78;;;4.39;100.00
20077;BME280;12348;42.710;23.378;2022-12-07T03:46:42;95059.81;;;4.42;100.00
20077;BME280;12348;42.710;23.378;2022-12-07T03:49:13;95062.78;;;4.45;100.00
20077;BME280;12348;42.710;23.378;2022-12-07T03:51:46;95061.72;;;4.46;100.00
20077;BME280;12348;42.710;23.378;2022-12-07T03:54:21;95062.78;;;4.45;100.00
20077;BME280;12348;42.710;23.378;2022-12-07T03:56:50;95053.44;;;4.48;100.00
20077;BME280;12348;42.710;23.378;2022-12-07T03:59:18;95059.09;;;4.83;100.00
20077;BME280;12348;42.710;23.378;2022-12-07T04:01:53;95050.53;;;4.81;100.00
20077;BME280;12348;42.710;23.378;2022-12-07T04:04:20;95045.97;;;4.77;100.00
20077;BME280;12348;42.710;23.378;2022-12-07T04:06:47;95051.78;;;4.69;100.00
20077;BME280;12348;42.710;23.378;2022-12-07T04:09:14;95053.66;;;4.68;100.00
20077;BME280;12348;42.710;23.378;2022-12-07T04:11:41;95047.41;;;4.57;100.00
20077;BME280;12348;42.710;23.378;2022-12-07T04:14:08;95039.97;;;4.59;100.00
20077;BME280;12348;42.710;23.378;2022-12-07T04:16:48;95045.16;;;4.44;100.00
20077;BME280;12348;42.710;23.378;2022-12-07T04:19:18;95051.72;;;4.31;100.00
20077;BME280;12348;42.710;23.378;2022-12-07T04:21:45;95042.88;;;4.26;100.00
20077;BME280;12348;42.710;23.378;2022-12-07T04:24:14;95044.41;;;4.22;100.00
20077;BME280;12348;42.710;23.378;2022-12-07T04:26:42;95041.97;;;4.15;100.00
20077;BME280;12348;42.710;23.378;2022-12-07T04:29:09;95055.78;;;4.12;100.00
20077;BME280;12348;42.710;23.378;2022-12-07T04:31:37;95051.75;;;4.09;100.00
20077;BME280;12348;42.710;23.378;2022-12-07T04:34:04;95050.16;;;4.08;100.00
20077;BME280;12348;42.710;23.378;2022-12-07T04:36:32;95050.38;;;4.07;100.00
20077;BME280;12348;42.710;23.378;2022-12-07T04:39:00;95051.75;;;4.09;100.00
20077;BME280;12348;42.710;23.378;2022-12-07T04:41:27;95051.22;;;4.07;100.00
20077;BME280;12348;42.710;23.378;2022-12-07T04:43:54;95051.31;;;3.96;100.00
20077;BME280;12348;42.710;23.378;2022-12-07T04:46:22;95052.34;;;3.89;100.00
20077;BME280;12348;42.710;23.378;2022-12-07T04:48:49;95065.84;;;3.83;100.00
20077;BME280;12348;42.710;23.378;2022-12-07T04:51:19;95065.28;;;3.81;100.00
20077;BME280;12348;42.710;23.378;2022-12-07T04:53:47;95063.13;;;3.78;100.00
20077;BME280;12348;42.710;23.378;2022-12-07T04:56:15;95066.50;;;3.73;100.00
20077;BME280;12348;42.710;23.378;2022-12-07T04:58:44;95056.88;;;3.67;100.00
20077;BME280;12348;42.710;23.378;2022-12-07T05:01:11;95061.41;;;3.67;100.00
20077;BME280;12348;42.710;23.378;2022-12-07T05:03:38;95060.66;;;3.71;100.00
20077;BME280;12348;42.710;23.378;2022-12-07T05:06:06;95064.13;;;3.72;100.00
20077;BME280;12348;42.710;23.378;2022-12-07T05:08:33;95053.31;;;3.83;100.00
20077;BME280;12348;42.710;23.378;2022-12-07T05:11:03;95053.44;;;4.48;100.00
20077;BME280;12348;42.710;23.378;2022-12-07T05:13:31;95061.16;;;4.44;100.00
20077;BME280;12348;42.710;23.378;2022-12-07T05:15:58;95058.69;;;4.10;100.00
20077;BME280;12348;42.710;23.378;2022-12-07T05:18:24;95066.28;;;3.97;100.00
20077;BME280;12348;42.710;23.378;2022-12-07T05:20:51;95060.56;;;3.88;100.00
20077;BME280;12348;42.710;23.378;2022-12-07T05:23:18;95056.78;;;3.84;100.00
20077;BME280;12348;42.710;23.378;2022-12-07T05:25:46;95052.47;;;3.78;100.00
20077;BME280;12348;42.710;23.378;2022-12-07T05:28:14;95053.50;;;3.77;100.00
20077;BME280;12348;42.710;23.378;2022-12-07T05:30:40;95057.00;;;3.77;100.00
20077;BME280;12348;42.710;23.378;2022-12-07T05:33:07;95051.91;;;3.76;100.00
20077;BME280;12348;42.710;23.378;2022-12-07T05:35:34;95057.59;;;3.84;100.00
20077;BME280;12348;42.710;23.378;2022-12-07T05:38:03;95055.31;;;3.93;100.00
20077;BME280;12348;42.710;23.378;2022-12-07T05:40:29;95060.16;;;3.96;100.00
20077;BME280;12348;42.710;23.378;2022-12-07T05:42:56;95059.84;;;3.93;100.00
20077;BME280;12348;42.710;23.378;2022-12-07T05:45:24;95056.31;;;3.87;100.00
20077;BME280;12348;42.710;23.378;2022-12-07T05:47:51;95058.50;;;3.95;100.00
20077;BME280;12348;42.710;23.378;2022-12-07T05:50:18;95059.75;;;4.09;100.00
20077;BME280;12348;42.710;23.378;2022-12-07T05:52:44;95054.19;;;4.11;100.00
20077;BME280;12348;42.710;23.378;2022-12-07T05:55:11;95051.41;;;4.01;100.00
20077;BME280;12348;42.710;23.378;2022-12-07T05:57:38;95051.59;;;3.94;100.00
20077;BME280;12348;42.710;23.378;2022-12-07T06:00:06;95046.75;;;3.91;100.00
20077;BME280;12348;42.710;23.378;2022-12-07T06:02:33;95053.16;;;3.90;100.00
20077;BME280;12348;42.710;23.378;2022-12-07T06:05:00;95055.13;;;4.00;100.00
20077;BME280;12348;42.710;23.378;2022-12-07T06:07:27;95046.06;;;4.01;100.00
20077;BME280;12348;42.710;23.378;2022-12-07T06:09:54;95045.16;;;3.90;100.00
20077;BME280;12348;42.710;23.378;2022-12-07T06:12:20;95047.19;;;4.05;100.00
20077;BME280;12348;42.710;23.378;2022-12-07T06:15:04;95055.19;;;4.32;100.00
20077;BME280;12348;42.710;23.378;2022-12-07T06:17:30;95060.25;;;4.06;100.00
20077;BME280;12348;42.710;23.378;2022-12-07T06:19:58;95057.44;;;4.18;100.00
20077;BME280;12348;42.710;23.378;2022-12-07T06:22:25;95052.47;;;4.27;100.00
20077;BME280;12348;42.710;23.378;2022-12-07T06:24:52;95056.44;;;4.24;100.00
20077;BME280;12348;42.710;23.378;2022-12-07T06:27:19;95043.38;;;4.23;100.00
20077;BME280;12348;42.710;23.378;2022-12-07T06:29:45;95053.47;;;4.21;100.00
20077;BME280;12348;42.710;23.378;2022-12-07T06:32:12;95063.44;;;4.30;100.00
20077;BME280;12348;42.710;23.378;2022-12-07T06:34:40;95061.38;;;4.37;100.00
20077;BME280;12348;42.710;23.378;2022-12-07T06:37:09;95067.59;;;4.48;100.00
20077;BME280;12348;42.710;23.378;2022-12-07T06:39:35;95067.19;;;4.61;100.00
20077;BME280;12348;42.710;23.378;2022-12-07T06:42:02;95070.47;;;4.74;100.00
20077;BME280;12348;42.710;23.378;2022-12-07T06:44:29;95073.78;;;4.86;100.00
20077;BME280;12348;42.710;23.378;2022-12-07T06:46:56;95077.69;;;5.05;100.00
20077;BME280;12348;42.710;23.378;2022-12-07T06:49:23;95076.41;;;5.18;100.00
20077;BME280;12348;42.710;23.378;2022-12-07T06:51:49;95072.41;;;5.16;100.00
20077;BME280;12348;42.710;23.378;2022-12-07T06:54:18;95071.38;;;5.22;100.00
20077;BME280;12348;42.710;23.378;2022-12-07T06:56:44;95074.03;;;5.22;100.00
20077;BME280;12348;42.710;23.378;2022-12-07T06:59:11;95074.03;;;5.22;100.00
20077;BME280;12348;42.710;23.378;2022-12-07T07:01:38;95063.34;;;5.17;100.00
20077;BME280;12348;42.710;23.378;2022-12-07T07:04:05;95073.03;;;5.28;100.00
20077;BME280;12348;42.710;23.378;2022-12-07T07:06:32;95073.03;;;5.28;100.00
20077;BME280;12348;42.710;23.378;2022-12-07T07:08:59;95062.88;;;5.30;100.00
20077;BME280;12348;42.710;23.378;2022-12-07T07:11:27;95064.00;;;5.39;100.00
20077;BME280;12348;42.710;23.378;2022-12-07T07:13:54;95070.53;;;5.58;100.00
20077;BME280;12348;42.710;23.378;2022-12-07T07:16:27;95067.19;;;5.83;100.00
20077;BME280;12348;42.710;23.378;2022-12-07T07:18:54;95074.75;;;6.02;100.00
20077;BME280;12348;42.710;23.378;2022-12-07T07:21:21;95078.81;;;6.20;100.00
20077;BME280;12348;42.710;23.378;2022-12-07T07:23:47;95072.41;;;6.26;100.00
20077;BME280;12348;42.710;23.378;2022-12-07T07:26:14;95080.19;;;6.27;100.00
20077;BME280;12348;42.710;23.378;2022-12-07T07:28:42;95077.28;;;6.44;100.00
20077;BME280;12348;42.710;23.378;2022-12-07T07:31:09;95077.25;;;6.24;100.00
20077;BME280;12348;42.710;23.378;2022-12-07T07:33:36;95077.81;;;6.51;100.00
20077;BME280;12348;42.710;23.378;2022-12-07T07:36:03;95067.91;;;6.31;100.00
20077;BME280;12348;42.710;23.378;2022-12-07T07:38:30;95077.28;;;6.49;100.00
20077;BME280;12348;42.710;23.378;2022-12-07T07:40:57;95077.84;;;6.72;100.00
20077;BME280;12348;42.710;23.378;2022-12-07T07:43:24;95081.34;;;6.72;100.00
20077;BME280;12348;42.710;23.378;2022-12-07T07:45:52;95075.19;;;7.13;100.00
20077;BME280;12348;42.710;23.378;2022-12-07T07:48:19;95076.25;;;7.27;100.00
20077;BME280;12348;42.710;23.378;2022-12-07T07:50:48;95071.97;;;7.36;100.00
20077;BME280;12348;42.710;23.378;2022-12-07T07:53:14;95068.28;;;8.57;100.00
20077;BME280;12348;42.710;23.378;2022-12-07T07:55:50;95060.72;;;9.85;100.00
20077;BME280;12348;42.710;23.378;2022-12-07T07:58:18;95070.31;;;10.15;100.00
20077;BME280;12348;42.710;23.378;2022-12-07T08:00:44;95064.81;;;10.68;100.00
20077;BME280;12348;42.710;23.378;2022-12-07T08:03:13;95064.31;;;11.64;100.00
20077;BME280;12348;42.710;23.378;2022-12-07T08:05:40;95067.41;;;11.72;100.00
20077;BME280;12348;42.710;23.378;2022-12-07T08:08:06;95060.88;;;12.33;100.00
20077;BME280;12348;42.710;23.378;2022-12-07T08:10:33;95068.16;;;12.19;95.89
20077;BME280;12348;42.710;23.378;2022-12-07T08:13:00;95069.00;;;11.59;97.35
20077;BME280;12348;42.710;23.378;2022-12-07T08:15:41;95068.88;;;10.85;100.00
20077;BME280;12348;42.710;23.378;2022-12-07T08:18:08;95067.50;;;10.68;100.00
20077;BME280;12348;42.710;23.378;2022-12-07T08:20:37;95065.22;;;10.14;100.00
20077;BME280;12348;42.710;23.378;2022-12-07T08:23:05;95071.44;;;9.90;100.00
20077;BME280;12348;42.710;23.378;2022-12-07T08:25:33;95064.78;;;9.83;100.00
20077;BME280;12348;42.710;23.378;2022-12-07T08:28:00;95063.94;;;9.87;100.00
20077;BME280;12348;42.710;23.378;2022-12-07T08:30:27;95061.47;;;9.91;100.00
20077;BME280;12348;42.710;23.378;2022-12-07T08:32:55;95064.00;;;9.82;100.00
20077;BME280;12348;42.710;23.378;2022-12-07T08:35:22;95061.97;;;9.69;100.00
20077;BME280;12348;42.710;23.378;2022-12-07T08:37:50;95073.63;;;9.59;100.00
20077;BME280;12348;42.710;23.378;2022-12-07T08:40:17;95062.06;;;9.35;100.00
20077;BME280;12348;42.710;23.378;2022-12-07T08:42:48;95066.34;;;9.36;100.00
20077;BME280;12348;42.710;23.378;2022-12-07T08:45:17;95063.72;;;9.26;100.00
20077;BME280;12348;42.710;23.378;2022-12-07T08:47:46;95058.28;;;9.36;100.00
20077;BME280;12348;42.710;23.378;2022-12-07T08:50:15;95055.09;;;9.34;100.00
20077;BME280;12348;42.710;23.378;2022-12-07T08:52:43;95052.75;;;9.22;100.00
20077;BME280;12348;42.710;23.378;2022-12-07T08:55:12;95049.72;;;8.99;100.00
20077;BME280;12348;42.710;23.378;2022-12-07T08:57:39;95044.34;;;8.99;100.00
20077;BME280;12348;42.710;23.378;2022-12-07T09:00:07;95040.38;;;8.92;100.00
20077;BME280;12348;42.710;23.378;2022-12-07T09:02:34;95043.88;;;8.92;100.00
20077;BME280;12348;42.710;23.378;2022-12-07T09:05:01;95038.66;;;9.06;100.00
20077;BME280;12348;42.710;23.378;2022-12-07T09:07:30;95038.97;;;9.34;100.00
20077;BME280;12348;42.710;23.378;2022-12-07T09:09:57;95028.75;;;9.60;100.00
20077;BME280;12348;42.710;23.378;2022-12-07T09:12:25;95036.44;;;9.42;100.00
20077;BME280;12348;42.710;23.378;2022-12-07T09:14:52;95012.34;;;9.32;100.00
20077;BME280;12348;42.710;23.378;2022-12-07T09:17:19;95015.19;;;9.46;100.00
20077;BME280;12348;42.710;23.378;2022-12-07T09:19:45;95016.31;;;9.40;100.00
20077;BME280;12348;42.710;23.378;2022-12-07T09:22:12;95015.44;;;9.44;100.00
20077;BME280;12348;42.710;23.378;2022-12-07T09:24:39;95016.88;;;9.37;100.00
20077;BME280;12348;42.710;23.378;2022-12-07T09:27:06;95017.63;;;9.42;100.00
20077;BME280;12348;42.710;23.378;2022-12-07T09:29:35;95027.28;;;9.14;100.00
20077;BME280;12348;42.710;23.378;2022-12-07T09:32:02;95019.38;;;9.28;100.00
20077;BME280;12348;42.710;23.378;2022-12-07T09:34:30;95010.38;;;8.85;100.00
20077;BME280;12348;42.710;23.378;2022-12-07T09:36:57;95012.94;;;9.00;100.00
20077;BME280;12348;42.710;23.378;2022-12-07T09:39:24;95001.69;;;9.22;100.00
20077;BME280;12348;42.710;23.378;2022-12-07T09:41:50;95001.50;;;8.84;100.00
20077;BME280;12348;42.710;23.378;2022-12-07T09:44:21;95000.25;;;9.06;100.00
20077;BME280;12348;42.710;23.378;2022-12-07T09:46:54;94991.91;;;9.07;100.00
20077;BME280;12348;42.710;23.378;2022-12-07T09:49:23;94987.44;;;8.97;100.00
20077;BME280;12348;42.710;23.378;2022-12-07T09:52:00;94991.09;;;9.07;100.00
20077;BME280;12348;42.710;23.378;2022-12-07T09:54:28;94978.69;;;9.16;100.00
20077;BME280;12348;42.710;23.378;2022-12-07T09:56:56;94979.31;;;9.32;100.00
20077;BME280;12348;42.710;23.378;2022-12-07T09:59:23;94982.94;;;9.46;100.00
20077;BME280;12348;42.710;23.378;2022-12-07T10:01:50;94975.31;;;9.29;100.00
20077;BME280;12348;42.710;23.378;2022-12-07T10:04:20;94978.78;;;9.06;100.00
20077;BME280;12348;42.710;23.378;2022-12-07T10:06:48;94979.84;;;9.34;100.00
20077;BME280;12348;42.710;23.378;2022-12-07T10:09:18;94971.72;;;9.39;100.00
20077;BME280;12348;42.710;23.378;2022-12-07T10:11:59;94968.72;;;9.88;100.00
20077;BME280;12348;42.710;23.378;2022-12-07T10:14:27;94968.03;;;9.78;100.00
20077;BME280;12348;42.710;23.378;2022-12-07T10:16:54;94972.63;;;9.77;100.00
20077;BME280;12348;42.710;23.378;2022-12-07T10:19:25;94959.13;;;9.82;100.00
20077;BME280;12348;42.710;23.378;2022-12-07T10:22:04;94954.13;;;10.13;100.00
20077;BME280;12348;42.710;23.378;2022-12-07T10:24:31;94945.75;;;10.15;100.00
20077;BME280;12348;42.710;23.378;2022-12-07T10:26:58;94943.63;;;9.93;100.00
20077;BME280;12348;42.710;23.378;2022-12-07T10:29:29;94944.81;;;10.25;100.00
20077;BME280;12348;42.710;23.378;2022-12-07T10:32:00;94938.88;;;10.47;100.00
20077;BME280;12348;42.710;23.378;2022-12-07T10:34:31;94935.75;;;10.72;100.00
20077;BME280;12348;42.710;23.378;2022-12-07T10:37:15;94926.72;;;10.96;100.00
20077;BME280;12348;42.710;23.378;2022-12-07T10:39:45;94926.63;;;11.01;100.00
20077;BME280;12348;42.710;23.378;2022-12-07T10:42:17;94921.53;;;10.34;100.00
20077;BME280;12348;42.710;23.378;2022-12-07T10:44:45;94919.59;;;10.20;100.00
20077;BME280;12348;42.710;23.378;2022-12-07T10:47:20;94915.44;;;10.47;100.00
20077;BME280;12348;42.710;23.378;2022-12-07T10:50:24;94922.72;;;10.47;100.00
20077;BME280;12348;42.710;23.378;2022-12-07T10:53:09;94922.06;;;9.98;100.00
20077;BME280;12348;42.710;23.378;2022-12-07T10:58:47;94908.25;;;10.42;100.00
20077;BME280;12348;42.710;23.378;2022-12-07T11:01:24;94905.56;;;10.56;100.00
20077;BME280;12348;42.710;23.378;2022-12-07T11:04:13;94900.47;;;10.87;100.00
20077;BME280;12348;42.710;23.378;2022-12-07T11:06:51;94896.59;;;10.93;100.00
20077;BME280;12348;42.710;23.378;2022-12-07T11:09:52;94884.50;;;10.77;100.00
20077;BME280;12348;42.710;23.378;2022-12-07T11:12:29;94880.91;;;10.68;100.00
20077;BME280;12348;42.710;23.378;2022-12-07T11:15:04;94885.03;;;11.07;100.00
20077;BME280;12348;42.710;23.378;2022-12-07T11:17:43;94891.94;;;11.40;100.00
20077;BME280;12348;42.710;23.378;2022-12-07T11:20:25;94885.00;;;11.89;100.00
20077;BME280;12348;42.710;23.378;2022-12-07T11:23:01;94881.69;;;11.93;100.00
20077;BME280;12348;42.710;23.378;2022-12-07T11:25:34;94880.84;;;11.56;100.00
20077;BME280;12348;42.710;23.378;2022-12-07T11:28:21;94871.94;;;11.55;100.00
20077;BME280;12348;42.710;23.378;2022-12-07T11:30:56;94855.94;;;11.73;100.00
20077;BME280;12348;42.710;23.378;2022-12-07T11:33:28;94856.69;;;11.51;100.00
20077;BME280;12348;42.710;23.378;2022-12-07T11:36:02;94851.16;;;12.06;100.00
20077;BME280;12348;42.710;23.378;2022-12-07T11:38:41;94842.59;;;12.80;98.47
20077;BME280;12348;42.710;23.378;2022-12-07T11:41:09;94846.50;;;12.20;99.38
20077;BME280;12348;42.710;23.378;2022-12-07T11:43:50;94854.00;;;12.01;100.00
20077;BME280;12348;42.710;23.378;2022-12-07T11:46:22;94852.28;;;11.27;100.00
20077;BME280;12348;42.710;23.378;2022-12-07T11:48:57;94846.47;;;11.61;100.00
20077;BME280;12348;42.710;23.378;2022-12-07T11:51:25;94839.13;;;11.39;100.00
20077;BME280;12348;42.710;23.378;2022-12-07T11:53:57;94847.47;;;11.52;100.00
20077;BME280;12348;42.710;23.378;2022-12-07T11:56:28;94849.44;;;11.74;100.00
20077;BME280;12348;42.710;23.378;2022-12-07T11:58:58;94841.78;;;12.03;100.00
20077;BME280;12348;42.710;23.378;2022-12-07T12:01:39;94835.56;;;12.70;100.00
20077;BME280;12348;42.710;23.378;2022-12-07T12:04:23;94826.41;;;12.57;98.39
20077;BME280;12348;42.710;23.378;2022-12-07T12:06:53;94830.88;;;12.08;100.00
20077;BME280;12348;42.710;23.378;2022-12-07T12:09:26;94821.59;;;11.64;100.00
20077;BME280;12348;42.710;23.378;2022-12-07T12:12:16;94815.59;;;10.76;100.00
20077;BME280;12348;42.710;23.378;2022-12-07T12:14:57;94811.56;;;10.60;100.00
20077;BME280;12348;42.710;23.378;2022-12-07T12:17:52;94806.78;;;10.57;100.00
20077;BME280;12348;42.710;23.378;2022-12-07T12:20:23;94803.19;;;10.61;100.00
20077;BME280;12348;42.710;23.378;2022-12-07T12:22:55;94808.47;;;10.94;100.00
20077;BME280;12348;42.710;23.378;2022-12-07T12:25:28;94807.50;;;11.18;100.00
20077;BME280;12348;42.710;23.378;2022-12-07T12:27:58;94807.97;;;10.78;100.00
20077;BME280;12348;42.710;23.378;2022-12-07T12:30:34;94803.38;;;10.51;100.00
20077;BME280;12348;42.710;23.378;2022-12-07T12:33:04;94797.03;;;10.61;100.00
20077;BME280;12348;42.710;23.378;2022-12-07T12:35:34;94800.91;;;10.68;100.00
20077;BME280;12348;42.710;23.378;2022-12-07T12:38:31;94802.91;;;10.77;100.00
20077;BME280;12348;42.710;23.378;2022-12-07T12:41:01;94790.31;;;10.44;100.00
20077;BME280;12348;42.710;23.378;2022-12-07T12:43:49;94793.16;;;10.34;100.00
20077;BME280;12348;42.710;23.378;2022-12-07T12:46:51;94783.28;;;10.30;100.00
20077;BME280;12348;42.710;23.378;2022-12-07T12:49:36;94782.63;;;10.52;100.00
20077;BME280;12348;42.710;23.378;2022-12-07T12:58:35;94786.03;;;10.71;100.00
20077;BME280;12348;42.710;23.378;2022-12-07T13:01:37;94785.97;;;10.76;100.00
20077;BME280;12348;42.710;23.378;2022-12-07T13:06:58;94781.25;;;10.96;100.00
20077;BME280;12348;42.710;23.378;2022-12-07T13:09:27;94787.25;;;11.06;100.00
20077;BME280;12348;42.710;23.378;2022-12-07T13:11:58;94779.53;;;11.27;100.00
20077;BME280;12348;42.710;23.378;2022-12-07T13:14:58;94782.25;;;11.50;100.00
20077;BME280;12348;42.710;23.378;2022-12-07T13:17:59;94779.84;;;11.12;100.00
20077;BME280;12348;42.710;23.378;2022-12-07T13:20:48;94780.69;;;11.49;100.00